Terminal Aerodrome Forecast
Issued by NWS

Home | Current Version | Previous Version | Text Only | Print | Product List | Glossary On
Versions: 1 2 3 4 5 6 7 8 9 10 11 12 13 14 15 16 17 18 19
000
FTUS42 KFFC 302201 AAB
TAFRYY
TAF AMD
KRYY 302201Z 3022/0118 26010G15KT P6SM VCSH FEW050 SCT100
     FM010600 26006KT P6SM SCT015 SCT060
     FM011400 26006KT P6SM SCT060=

USA.gov is the U.S. government's official web portal to all federal, state and local government web resources and services.